createdAt,value
2023-03-16T00:00:02.926Z,999.90
2023-03-16T00:01:02.941Z,999.90
2023-03-16T00:02:02.926Z,999.90
2023-03-16T00:03:02.955Z,999.90
2023-03-16T00:04:02.872Z,999.90
2023-03-16T00:05:02.891Z,999.90
2023-03-16T00:06:02.918Z,999.90
2023-03-16T00:07:02.836Z,999.90
2023-03-16T00:08:02.944Z,999.90
2023-03-16T00:09:02.816Z,999.90
2023-03-16T00:10:02.815Z,999.90
2023-03-16T00:11:02.860Z,999.90
2023-03-16T00:12:02.784Z,999.90
2023-03-16T00:13:02.859Z,385.90
2023-03-16T00:14:02.755Z,999.90
2023-03-16T00:15:02.754Z,999.90
2023-03-16T00:16:02.814Z,999.90
2023-03-16T00:17:02.737Z,999.90
2023-03-16T00:18:02.725Z,999.90
2023-03-16T00:19:02.715Z,999.90
2023-03-16T00:20:02.706Z,999.90
2023-03-16T00:21:02.718Z,999.90
2023-03-16T00:22:02.681Z,999.90
2023-03-16T00:23:02.662Z,999.90
2023-03-16T00:24:02.656Z,999.90
2023-03-16T00:25:02.648Z,999.90
2023-03-16T00:26:02.660Z,999.90
2023-03-16T00:27:02.613Z,999.90
2023-03-16T00:28:02.607Z,999.90
2023-03-16T00:29:02.604Z,999.90
2023-03-16T00:30:02.589Z,999.90
2023-03-16T00:31:02.610Z,999.90
2023-03-16T00:32:02.615Z,999.90
2023-03-16T00:33:02.604Z,999.90
2023-03-16T00:34:02.543Z,999.90
2023-03-16T00:35:02.565Z,999.90
2023-03-16T00:36:02.770Z,999.90
2023-03-16T00:37:02.509Z,999.90
2023-03-16T00:38:02.489Z,999.90
2023-03-16T00:39:02.492Z,999.90
2023-03-16T00:40:02.473Z,999.90
2023-03-16T00:41:02.503Z,999.90
2023-03-16T00:42:02.436Z,999.90
2023-03-16T00:43:02.442Z,999.90
2023-03-16T00:44:02.431Z,999.90
2023-03-16T00:45:02.414Z,999.90
2023-03-16T00:46:02.493Z,999.90
2023-03-16T00:47:02.407Z,999.90
2023-03-16T00:48:02.374Z,999.90
2023-03-16T00:49:02.372Z,999.90
2023-03-16T00:50:02.365Z,999.90
2023-03-16T00:51:02.396Z,999.90
2023-03-16T00:52:02.340Z,999.90
2023-03-16T00:53:02.333Z,999.90
2023-03-16T00:54:02.308Z,999.90
2023-03-16T00:55:02.307Z,999.90
2023-03-16T00:56:02.329Z,999.90
2023-03-16T00:57:02.284Z,999.90
2023-03-16T00:58:02.269Z,999.90
2023-03-16T00:59:02.256Z,999.90
2023-03-16T01:00:02.242Z,999.90
2023-03-16T01:01:02.476Z,999.90
2023-03-16T01:02:02.237Z,999.90
2023-03-16T01:03:02.297Z,999.90
2023-03-16T01:04:02.188Z,999.90
2023-03-16T01:05:02.196Z,999.90
2023-03-16T01:06:02.218Z,999.90
2023-03-16T01:07:02.187Z,999.90
2023-03-16T01:08:02.160Z,999.90
2023-03-16T01:09:02.154Z,999.90
2023-03-16T01:10:02.135Z,999.90
2023-03-16T01:11:02.173Z,999.90
2023-03-16T01:12:02.118Z,999.90
2023-03-16T01:13:02.110Z,999.90
2023-03-16T01:14:02.092Z,999.90
2023-03-16T01:15:02.110Z,999.90
2023-03-16T01:16:02.103Z,999.90
2023-03-16T01:17:02.141Z,999.90
2023-03-16T01:18:02.065Z,999.90
2023-03-16T01:19:02.043Z,999.90
2023-03-16T01:20:02.034Z,999.90
2023-03-16T01:21:02.086Z,999.90
2023-03-16T01:22:02.017Z,999.90
2023-03-16T01:23:02.007Z,999.90
2023-03-16T01:24:01.973Z,999.90
2023-03-16T01:25:01.978Z,999.90
2023-03-16T01:26:02.018Z,999.90
2023-03-16T01:27:01.955Z,999.90
2023-03-16T01:28:01.940Z,999.90
2023-03-16T01:29:01.937Z,999.90
2023-03-16T01:30:01.914Z,999.90
2023-03-16T01:31:02.156Z,999.90
2023-03-16T01:32:01.896Z,999.90
2023-03-16T01:33:01.925Z,999.90
2023-03-16T01:34:01.887Z,999.90
2023-03-16T01:35:01.871Z,999.90
2023-03-16T01:36:01.956Z,999.90
2023-03-16T01:37:01.851Z,999.90
2023-03-16T01:38:01.825Z,999.90
2023-03-16T01:39:01.833Z,999.90
2023-03-16T01:40:01.832Z,999.90
2023-03-16T01:41:01.851Z,999.90
2023-03-16T01:42:01.794Z,999.90
2023-03-16T01:43:01.779Z,999.90
2023-03-16T01:44:01.757Z,999.90
2023-03-16T01:45:01.773Z,999.90
2023-03-16T01:46:01.802Z,999.90
2023-03-16T01:47:01.761Z,999.90
2023-03-16T01:48:01.733Z,999.90
2023-03-16T01:49:01.734Z,999.90
2023-03-16T01:50:01.705Z,999.90
2023-03-16T01:51:01.777Z,999.90
2023-03-16T01:52:01.678Z,999.90
2023-03-16T01:53:01.659Z,999.90
2023-03-16T01:54:01.688Z,999.90
2023-03-16T01:55:01.668Z,999.90
2023-03-16T01:56:01.663Z,999.90
2023-03-16T01:57:01.624Z,999.90
2023-03-16T01:58:01.623Z,999.90
2023-03-16T01:59:01.610Z,999.90
2023-03-16T02:00:01.611Z,999.90
2023-03-16T02:01:01.708Z,999.90
2023-03-16T02:02:01.598Z,999.90
2023-03-16T02:03:01.545Z,999.90
2023-03-16T02:04:01.623Z,999.90
2023-03-16T02:05:01.543Z,999.90
2023-03-16T02:06:01.606Z,999.90
2023-03-16T02:07:01.560Z,999.90
2023-03-16T02:08:01.551Z,999.90
2023-03-16T02:09:01.573Z,999.90
2023-03-16T02:10:01.518Z,999.90
2023-03-16T02:11:01.561Z,999.90
2023-03-16T02:12:01.576Z,999.90
2023-03-16T02:13:01.470Z,999.90
2023-03-16T02:14:01.453Z,999.90
2023-03-16T02:15:01.424Z,999.90
2023-03-16T02:16:01.513Z,999.90
2023-03-16T02:17:01.410Z,999.90
2023-03-16T02:18:01.420Z,999.90
2023-03-16T02:19:01.402Z,999.90
2023-03-16T02:20:01.404Z,999.90
2023-03-16T02:21:01.411Z,999.90
2023-03-16T02:22:01.366Z,999.90
2023-03-16T02:23:01.345Z,999.90
2023-03-16T02:24:01.336Z,999.90
2023-03-16T02:25:01.337Z,999.90
2023-03-16T02:26:01.377Z,999.90
2023-03-16T02:27:01.318Z,999.90
2023-03-16T02:28:01.306Z,999.90
2023-03-16T02:29:01.293Z,999.90
2023-03-16T02:30:01.372Z,999.90
2023-03-16T02:31:01.328Z,999.90
2023-03-16T02:32:01.275Z,999.90
2023-03-16T02:33:01.275Z,999.90
2023-03-16T02:34:01.242Z,999.90
2023-03-16T02:35:01.213Z,999.90
2023-03-16T02:36:01.284Z,999.90
2023-03-16T02:37:01.196Z,999.90
2023-03-16T02:38:01.200Z,999.90
2023-03-16T02:39:01.162Z,999.90
2023-03-16T02:40:01.210Z,999.90
2023-03-16T02:41:01.182Z,999.90
2023-03-16T02:42:01.145Z,999.90
2023-03-16T02:43:01.125Z,999.90
2023-03-16T02:44:01.111Z,999.90
2023-03-16T02:45:01.096Z,999.90
2023-03-16T02:46:01.212Z,999.90
2023-03-16T02:47:01.104Z,999.90
2023-03-16T02:48:01.061Z,999.90
2023-03-16T02:49:01.065Z,999.90
2023-03-16T02:50:01.060Z,999.90
2023-03-16T02:51:01.079Z,999.90
2023-03-16T02:52:01.036Z,999.90
2023-03-16T02:53:01.060Z,999.90
2023-03-16T02:54:01.023Z,999.90
2023-03-16T02:55:00.982Z,999.90
2023-03-16T02:56:01.007Z,999.90
2023-03-16T02:57:00.969Z,999.90
2023-03-16T02:58:00.980Z,999.90
2023-03-16T02:59:00.949Z,999.90
2023-03-16T03:00:00.937Z,999.90
2023-03-16T03:01:00.961Z,999.90
2023-03-16T03:02:00.895Z,999.90
2023-03-16T03:03:00.926Z,999.90
2023-03-16T03:04:00.886Z,999.90
2023-03-16T03:05:00.884Z,999.90
2023-03-16T03:06:00.996Z,999.90
2023-03-16T03:07:00.854Z,999.90
2023-03-16T03:08:00.854Z,999.90
2023-03-16T03:09:00.831Z,999.90
2023-03-16T03:10:00.846Z,999.90
2023-03-16T03:11:00.846Z,999.90
2023-03-16T03:12:00.957Z,999.90
2023-03-16T03:13:00.793Z,999.90
2023-03-16T03:14:00.794Z,999.90
2023-03-16T03:15:00.796Z,999.90
2023-03-16T03:16:00.791Z,999.90
2023-03-16T03:17:00.779Z,999.90
2023-03-16T03:18:00.743Z,999.90
2023-03-16T03:19:00.719Z,999.90
2023-03-16T03:20:00.721Z,999.90
2023-03-16T03:21:00.703Z,999.90
2023-03-16T03:22:00.737Z,999.90
2023-03-16T03:23:00.672Z,999.90
2023-03-16T03:24:00.668Z,999.90
2023-03-16T03:25:00.675Z,999.90
2023-03-16T03:26:00.645Z,999.90
2023-03-16T03:27:00.675Z,999.90
2023-03-16T03:28:00.649Z,999.90
2023-03-16T03:29:00.601Z,999.90
2023-03-16T03:30:00.607Z,999.90
2023-03-16T03:31:00.564Z,999.90
2023-03-16T03:32:00.601Z,999.90
2023-03-16T03:33:00.623Z,999.90
2023-03-16T03:34:00.552Z,999.90
2023-03-16T03:35:00.528Z,999.90
2023-03-16T03:36:00.546Z,999.90
2023-03-16T03:37:00.557Z,999.90
2023-03-16T03:38:00.530Z,999.90
2023-03-16T03:39:00.496Z,999.90
2023-03-16T03:40:00.482Z,999.90
2023-03-16T03:41:00.513Z,999.90
2023-03-16T03:42:00.499Z,999.90
2023-03-16T03:43:00.443Z,999.90
2023-03-16T03:44:00.442Z,999.90
2023-03-16T03:45:00.416Z,999.90
2023-03-16T03:46:00.516Z,999.90
2023-03-16T03:47:00.505Z,999.90
2023-03-16T03:48:00.418Z,999.90
2023-03-16T03:49:00.378Z,999.90
2023-03-16T03:50:00.376Z,999.90
2023-03-16T03:51:00.359Z,999.90
2023-03-16T03:52:00.395Z,999.90
2023-03-16T03:53:00.339Z,999.90
2023-03-16T03:54:00.322Z,999.90
2023-03-16T03:55:00.314Z,999.90
2023-03-16T03:56:00.299Z,999.90
2023-03-16T03:57:00.320Z,999.90
2023-03-16T03:58:00.290Z,999.90
2023-03-16T03:59:00.271Z,999.90
2023-03-16T04:00:00.262Z,999.90
2023-03-16T04:01:00.251Z,999.90
2023-03-16T04:02:00.341Z,999.90
2023-03-16T04:03:00.384Z,999.90
2023-03-16T04:04:00.209Z,999.90
2023-03-16T04:05:00.199Z,999.90
2023-03-16T04:06:00.202Z,999.90
2023-03-16T04:07:00.195Z,999.90
2023-03-16T04:08:00.220Z,999.90
2023-03-16T04:09:00.174Z,999.90
2023-03-16T04:10:00.154Z,999.90
2023-03-16T04:11:00.154Z,999.90
2023-03-16T04:12:00.129Z,999.90
2023-03-16T04:13:00.172Z,999.90
2023-03-16T04:14:00.112Z,999.90
2023-03-16T04:15:00.100Z,999.90
2023-03-16T04:16:00.102Z,999.90
2023-03-16T04:17:00.147Z,999.90
2023-03-16T04:18:00.096Z,999.90
2023-03-16T04:19:00.043Z,999.90
2023-03-16T04:20:00.051Z,999.90
2023-03-16T04:21:00.027Z,999.90
2023-03-16T04:22:00.029Z,999.90
2023-03-16T04:23:00.041Z,999.90
2023-03-16T04:24:00.028Z,999.90
2023-03-16T04:24:59.976Z,999.90
2023-03-16T04:25:59.973Z,999.90
2023-03-16T04:26:59.955Z,999.90
2023-03-16T04:27:59.978Z,999.90
2023-03-16T04:28:59.941Z,999.90
2023-03-16T04:29:59.935Z,999.90
2023-03-16T04:30:59.978Z,999.90
2023-03-16T04:31:59.903Z,999.90
2023-03-16T04:33:00.033Z,999.90
2023-03-16T04:33:59.870Z,999.90
2023-03-16T04:34:59.855Z,999.90
2023-03-16T04:35:59.874Z,999.90
2023-03-16T04:36:59.839Z,999.90
2023-03-16T04:37:59.868Z,999.90
2023-03-16T04:38:59.832Z,999.90
2023-03-16T04:39:59.827Z,999.90
2023-03-16T04:40:59.800Z,999.90
2023-03-16T04:41:59.783Z,999.90
2023-03-16T04:42:59.812Z,999.90
2023-03-16T04:43:59.770Z,999.90
2023-03-16T04:44:59.750Z,999.90
2023-03-16T04:45:59.768Z,999.90
2023-03-16T04:46:59.734Z,999.90
2023-03-16T04:47:59.759Z,999.90
2023-03-16T04:48:59.707Z,999.90
2023-03-16T04:49:59.710Z,999.90
2023-03-16T04:50:59.697Z,999.90
2023-03-16T04:51:59.674Z,999.90
2023-03-16T04:52:59.706Z,999.90
2023-03-16T04:53:59.658Z,999.90
2023-03-16T04:54:59.645Z,999.90
2023-03-16T04:55:59.637Z,999.90
2023-03-16T04:56:59.618Z,999.90
2023-03-16T04:57:59.651Z,999.90
2023-03-16T04:58:59.596Z,999.90
2023-03-16T04:59:59.600Z,999.90
2023-03-16T05:00:59.569Z,999.90
2023-03-16T05:01:59.577Z,999.90
2023-03-16T05:02:59.617Z,999.90
2023-03-16T05:03:59.888Z,999.90
2023-03-16T05:04:59.533Z,999.90
2023-03-16T05:05:59.592Z,999.90
2023-03-16T05:06:59.500Z,999.90
2023-03-16T05:07:59.506Z,999.90
2023-03-16T05:08:59.522Z,999.90
2023-03-16T05:09:59.507Z,999.90
2023-03-16T05:10:59.500Z,999.90
2023-03-16T05:11:59.470Z,999.90
2023-03-16T05:12:59.454Z,999.90
2023-03-16T05:13:59.472Z,999.90
2023-03-16T05:14:59.422Z,999.90
2023-03-16T05:15:59.454Z,999.90
2023-03-16T05:16:59.417Z,999.90
2023-03-16T05:17:59.401Z,999.90
2023-03-16T05:18:59.413Z,999.90
2023-03-16T05:19:59.373Z,999.90
2023-03-16T05:20:59.371Z,999.90
2023-03-16T05:21:59.348Z,999.90
2023-03-16T05:22:59.336Z,999.90
2023-03-16T05:23:59.349Z,999.90
2023-03-16T05:24:59.297Z,999.90
2023-03-16T05:25:59.294Z,999.90
2023-03-16T05:26:59.270Z,999.90
2023-03-16T05:27:59.274Z,999.90
2023-03-16T05:28:59.302Z,999.90
2023-03-16T05:29:59.269Z,999.90
2023-03-16T05:30:59.281Z,999.90
2023-03-16T05:31:59.237Z,999.90
2023-03-16T05:32:59.305Z,999.90
2023-03-16T05:33:59.264Z,999.90
2023-03-16T05:34:59.204Z,999.90
2023-03-16T05:35:59.208Z,999.90
2023-03-16T05:36:59.164Z,999.90
2023-03-16T05:37:59.174Z,999.90
2023-03-16T05:38:59.191Z,999.90
2023-03-16T05:39:59.150Z,999.90
2023-03-16T05:40:59.124Z,999.90
2023-03-16T05:41:59.138Z,999.90
2023-03-16T05:42:59.113Z,999.90
2023-03-16T05:43:59.148Z,999.90
2023-03-16T05:44:59.086Z,999.90
2023-03-16T05:45:59.082Z,999.90
2023-03-16T05:46:59.127Z,999.90
2023-03-16T05:47:59.054Z,999.90
2023-03-16T05:48:59.086Z,999.90
2023-03-16T05:49:59.033Z,999.90
2023-03-16T05:50:59.026Z,999.90
2023-03-16T05:51:59.029Z,999.90
2023-03-16T05:52:59.017Z,999.90
2023-03-16T05:53:59.077Z,999.90
2023-03-16T05:54:58.986Z,950.30
2023-03-16T05:55:58.953Z,999.90
2023-03-16T05:56:58.951Z,999.90
2023-03-16T05:57:58.968Z,999.90
2023-03-16T05:58:58.940Z,999.90
2023-03-16T05:59:58.948Z,999.90
2023-03-16T06:00:58.920Z,999.90
2023-03-16T06:01:58.909Z,999.90
2023-03-16T06:02:58.964Z,999.90
2023-03-16T06:03:58.950Z,861.60
2023-03-16T06:04:58.921Z,974.30
2023-03-16T06:05:58.854Z,999.90
2023-03-16T06:06:58.861Z,904.40
2023-03-16T06:07:58.827Z,999.90
2023-03-16T06:08:58.853Z,999.90
2023-03-16T06:09:58.854Z,885.00
2023-03-16T06:10:58.809Z,407.00
2023-03-16T06:11:58.785Z,999.90
2023-03-16T06:13:00.026Z,999.90
2023-03-16T06:13:58.763Z,999.90
2023-03-16T06:14:58.803Z,999.90
2023-03-16T06:15:58.771Z,999.90
2023-03-16T06:16:58.740Z,527.60
2023-03-16T06:17:58.731Z,981.30
2023-03-16T06:18:59.944Z,999.90
2023-03-16T06:19:58.771Z,651.40
2023-03-16T06:20:58.693Z,999.90
2023-03-16T06:21:58.795Z,999.90
2023-03-16T06:22:58.751Z,999.90
2023-03-16T06:23:58.667Z,999.90
2023-03-16T06:24:58.688Z,302.30
2023-03-16T06:25:58.654Z,999.90
2023-03-16T06:26:58.615Z,999.90
2023-03-16T06:27:58.626Z,999.90
2023-03-16T06:28:58.632Z,999.90
2023-03-16T06:29:58.645Z,999.90
2023-03-16T06:30:58.610Z,999.90
2023-03-16T06:31:58.683Z,999.90
2023-03-16T06:32:58.623Z,999.90
2023-03-16T06:33:58.540Z,999.90
2023-03-16T06:34:58.592Z,999.90
2023-03-16T06:35:58.589Z,999.90
2023-03-16T06:36:58.534Z,999.90
2023-03-16T06:37:58.507Z,999.90
2023-03-16T06:38:58.504Z,999.90
2023-03-16T06:39:58.518Z,999.90
2023-03-16T06:40:58.509Z,999.90
2023-03-16T06:41:58.482Z,999.90
2023-03-16T06:42:58.464Z,999.90
2023-03-16T06:43:58.471Z,999.90
2023-03-16T06:44:58.479Z,999.90
2023-03-16T06:45:58.442Z,999.90
2023-03-16T06:46:58.420Z,999.90
2023-03-16T06:47:58.394Z,999.90
2023-03-16T06:48:58.394Z,999.90
2023-03-16T06:49:58.470Z,999.90
2023-03-16T06:50:58.369Z,999.90
2023-03-16T06:51:58.387Z,162.10
2023-03-16T06:52:58.336Z,999.90
2023-03-16T06:53:58.325Z,171.10
2023-03-16T06:54:58.309Z,999.90
2023-03-16T06:55:58.326Z,999.90
2023-03-16T06:56:58.306Z,999.90
2023-03-16T06:57:58.308Z,764.10
2023-03-16T06:58:58.288Z,999.90
2023-03-16T06:59:58.258Z,630.10
2023-03-16T07:00:58.356Z,364.90
2023-03-16T07:01:58.230Z,320.20
2023-03-16T07:03:00.405Z,251.20
2023-03-16T07:03:58.233Z,213.60
2023-03-16T07:04:58.209Z,191.20
2023-03-16T07:05:58.228Z,167.30
2023-03-16T07:06:58.164Z,133.80
2023-03-16T07:07:58.196Z,119.50
2023-03-16T07:08:58.147Z,99.50
2023-03-16T07:09:58.165Z,56.10
2023-03-16T07:10:58.176Z,79.40
2023-03-16T07:11:58.130Z,110.90
2023-03-16T07:12:58.115Z,111.50
2023-03-16T07:13:58.103Z,134.90
2023-03-16T07:14:58.080Z,64.40
2023-03-16T07:15:58.126Z,71.50
2023-03-16T07:16:58.108Z,56.20
2023-03-16T07:17:58.045Z,58.70
2023-03-16T07:18:58.050Z,48.80
2023-03-16T07:19:58.020Z,31.60
2023-03-16T07:20:58.045Z,26.50
2023-03-16T07:21:58.028Z,26.40
2023-03-16T07:22:58.008Z,24.50
2023-03-16T07:23:57.968Z,20.10
2023-03-16T07:24:57.994Z,20.80
2023-03-16T07:25:57.992Z,20.60
2023-03-16T07:26:57.948Z,17.90
2023-03-16T07:27:57.944Z,17.90
2023-03-16T07:28:58.258Z,17.10
2023-03-16T07:29:57.924Z,19.20
2023-03-16T07:31:03.788Z,31.40
2023-03-16T07:31:58.957Z,35.70
2023-03-16T07:32:57.962Z,40.60
2023-03-16T07:33:57.872Z,42.30
2023-03-16T07:34:59.192Z,41.90
2023-03-16T07:35:57.944Z,69.20
2023-03-16T07:36:57.864Z,90.00
2023-03-16T07:37:57.834Z,99.90
2023-03-16T07:38:57.842Z,94.30
2023-03-16T07:39:57.796Z,82.30
2023-03-16T07:40:57.847Z,66.40
2023-03-16T07:41:57.781Z,51.50
2023-03-16T07:42:57.785Z,43.70
2023-03-16T07:43:57.787Z,58.60
2023-03-16T07:44:57.768Z,63.00
2023-03-16T07:45:57.805Z,71.90
2023-03-16T07:46:57.732Z,71.50
2023-03-16T07:47:57.714Z,60.90
2023-03-16T07:48:57.717Z,60.40
2023-03-16T07:49:57.716Z,52.70
2023-03-16T07:50:57.736Z,32.40
2023-03-16T07:51:57.662Z,27.70
2023-03-16T07:52:57.677Z,24.30
2023-03-16T07:53:57.626Z,19.60
2023-03-16T07:54:57.634Z,19.00
2023-03-16T07:55:57.677Z,15.80
2023-03-16T07:56:57.616Z,10.60
2023-03-16T07:57:57.622Z,9.50
2023-03-16T07:58:57.583Z,11.40
2023-03-16T07:59:57.575Z,13.80
2023-03-16T08:00:57.573Z,14.60
2023-03-16T08:01:57.618Z,13.70
2023-03-16T08:02:57.630Z,15.30
2023-03-16T08:03:57.581Z,16.20
2023-03-16T08:04:57.533Z,17.00
2023-03-16T08:05:57.510Z,16.50
2023-03-16T08:06:57.508Z,14.60
2023-03-16T08:07:57.485Z,9.40
2023-03-16T08:08:57.562Z,8.80
2023-03-16T08:09:57.472Z,8.90
2023-03-16T08:10:57.450Z,9.10
2023-03-16T08:11:57.448Z,10.40
2023-03-16T08:12:57.467Z,8.90
2023-03-16T08:13:57.463Z,8.70
2023-03-16T08:14:57.414Z,8.20
2023-03-16T08:15:57.423Z,8.40
2023-03-16T08:16:57.419Z,8.00
2023-03-16T08:17:57.382Z,8.30
2023-03-16T08:18:57.416Z,8.70
2023-03-16T08:19:57.362Z,8.60
2023-03-16T08:20:57.373Z,8.40
2023-03-16T08:22:01.408Z,7.70
2023-03-16T08:22:57.359Z,7.70
2023-03-16T08:23:57.472Z,7.90
2023-03-16T08:24:57.301Z,7.40
2023-03-16T08:25:57.296Z,6.20
2023-03-16T08:26:57.262Z,6.40
2023-03-16T08:27:57.260Z,6.40
2023-03-16T08:28:57.353Z,6.50
2023-03-16T08:29:57.256Z,6.20
2023-03-16T08:30:57.264Z,7.30
2023-03-16T08:31:57.233Z,7.30
2023-03-16T08:32:57.392Z,7.00
2023-03-16T08:33:57.213Z,7.00
2023-03-16T08:34:57.184Z,6.80
2023-03-16T08:35:57.210Z,7.20
2023-03-16T08:36:57.269Z,7.30
2023-03-16T08:37:57.200Z,7.70
2023-03-16T08:39:06.580Z,7.20
2023-03-16T08:39:58.129Z,6.80
2023-03-16T08:40:57.132Z,7.00
2023-03-16T08:41:57.112Z,7.40
2023-03-16T08:42:57.133Z,7.80
2023-03-16T08:43:57.104Z,7.00
2023-03-16T08:44:57.093Z,7.20
2023-03-16T08:45:57.075Z,6.70
2023-03-16T08:46:57.147Z,6.90
2023-03-16T08:47:57.050Z,7.10
2023-03-16T08:48:57.024Z,6.90
2023-03-16T08:49:57.016Z,7.00
2023-03-16T08:50:57.025Z,7.20
2023-03-16T08:51:56.972Z,7.30
2023-03-16T08:52:57.004Z,7.50
2023-03-16T08:53:57.004Z,7.60
2023-03-16T08:55:03.381Z,7.20
2023-03-16T08:55:57.929Z,7.20
2023-03-16T08:56:56.942Z,7.60
2023-03-16T08:57:56.963Z,7.50
2023-03-16T08:58:56.916Z,7.90
2023-03-16T08:59:56.916Z,7.80
2023-03-16T09:00:56.887Z,7.60
2023-03-16T09:01:56.937Z,7.70
2023-03-16T09:02:56.999Z,7.40
2023-03-16T09:03:56.920Z,7.90
2023-03-16T09:04:56.852Z,7.40
2023-03-16T09:05:56.820Z,6.90
2023-03-16T09:07:08.254Z,6.60
2023-03-16T09:07:58.020Z,6.50
2023-03-16T09:08:56.811Z,6.00
2023-03-16T09:09:56.780Z,6.70
2023-03-16T09:10:56.798Z,6.30
2023-03-16T09:11:56.756Z,6.70
2023-03-16T09:12:56.807Z,6.40
2023-03-16T09:13:56.795Z,6.20
2023-03-16T09:14:56.734Z,6.10
2023-03-16T09:15:56.780Z,6.40
2023-03-16T09:16:56.740Z,6.50
2023-03-16T09:17:56.698Z,6.40
2023-03-16T09:18:56.729Z,6.30
2023-03-16T09:20:08.107Z,6.10
2023-03-16T09:20:59.591Z,5.70
2023-03-16T09:21:56.627Z,5.70
2023-03-16T09:22:56.634Z,5.40
2023-03-16T09:23:56.744Z,5.30
2023-03-16T09:24:56.677Z,5.20
2023-03-16T09:25:56.620Z,5.50
2023-03-16T09:26:56.735Z,4.90
2023-03-16T09:27:56.605Z,5.30
2023-03-16T09:28:56.622Z,5.60
2023-03-16T09:29:56.617Z,5.60
2023-03-16T09:30:56.554Z,5.40
2023-03-16T09:31:56.551Z,5.20
2023-03-16T09:32:56.577Z,5.10
2023-03-16T09:33:56.545Z,5.00
2023-03-16T09:34:56.528Z,5.40
2023-03-16T09:35:56.544Z,5.70
2023-03-16T09:36:56.492Z,6.80
2023-03-16T09:38:05.686Z,5.20
2023-03-16T09:38:57.537Z,6.90
2023-03-16T09:40:03.217Z,5.70
2023-03-16T09:40:57.437Z,5.60
2023-03-16T09:41:56.421Z,5.40
2023-03-16T09:42:56.424Z,5.60
2023-03-16T09:43:56.442Z,5.10
2023-03-16T09:44:56.432Z,5.10
2023-03-16T09:45:56.502Z,4.70
2023-03-16T09:46:56.374Z,5.00
2023-03-16T09:47:56.370Z,5.00
2023-03-16T09:48:56.393Z,5.40
2023-03-16T09:49:56.343Z,5.10
2023-03-16T09:50:56.609Z,5.10
2023-03-16T09:51:56.303Z,5.30
2023-03-16T09:52:56.289Z,5.00
2023-03-16T09:53:56.302Z,5.30
2023-03-16T09:54:56.285Z,4.90
2023-03-16T09:55:56.262Z,4.90
2023-03-16T09:56:56.330Z,4.90
2023-03-16T09:57:56.244Z,4.80
2023-03-16T09:58:56.272Z,4.90
2023-03-16T09:59:56.232Z,5.00
2023-03-16T10:00:56.241Z,5.10
2023-03-16T10:01:56.200Z,4.90
2023-03-16T10:02:56.200Z,5.00
2023-03-16T10:03:56.272Z,4.90
2023-03-16T10:04:56.176Z,4.70
2023-03-16T10:05:56.166Z,5.00
2023-03-16T10:06:56.180Z,5.00
2023-03-16T10:07:56.133Z,5.30
2023-03-16T10:08:56.193Z,5.10
2023-03-16T10:09:56.130Z,5.30
2023-03-16T10:10:56.118Z,5.40
2023-03-16T10:11:56.277Z,5.50
2023-03-16T10:12:56.423Z,5.30
2023-03-16T10:13:56.122Z,5.70
2023-03-16T10:14:56.137Z,5.70
2023-03-16T10:15:56.053Z,5.60
2023-03-16T10:16:56.056Z,5.30
2023-03-16T10:17:56.031Z,5.90
2023-03-16T10:18:56.163Z,6.80
2023-03-16T10:19:55.999Z,6.60
2023-03-16T10:20:55.985Z,5.40
2023-03-16T10:21:55.964Z,5.40
2023-03-16T10:22:55.956Z,6.50
2023-03-16T10:23:55.981Z,5.50
2023-03-16T10:24:55.958Z,5.10
2023-03-16T10:25:55.934Z,5.10
2023-03-16T10:26:55.914Z,5.30
2023-03-16T10:27:55.914Z,5.50
2023-03-16T10:28:55.937Z,5.20
2023-03-16T10:29:55.919Z,5.20
2023-03-16T10:30:55.876Z,4.80
2023-03-16T10:31:55.901Z,5.20
2023-03-16T10:32:55.891Z,5.30
2023-03-16T10:33:55.881Z,5.10
2023-03-16T10:34:55.829Z,5.40
2023-03-16T10:35:55.815Z,5.30
2023-03-16T10:36:55.855Z,5.30
2023-03-16T10:37:55.822Z,5.30
2023-03-16T10:38:55.818Z,5.40
2023-03-16T10:39:55.786Z,5.30
2023-03-16T10:40:55.744Z,5.60
2023-03-16T10:41:55.769Z,5.40
2023-03-16T10:42:55.732Z,5.50
2023-03-16T10:43:55.788Z,5.10
2023-03-16T10:44:55.719Z,5.10
2023-03-16T10:45:55.785Z,5.30
2023-03-16T10:46:55.728Z,5.50
2023-03-16T10:47:55.721Z,5.40
2023-03-16T10:48:55.664Z,5.50
2023-03-16T10:49:55.804Z,5.40
2023-03-16T10:50:55.639Z,5.50
2023-03-16T10:51:55.626Z,5.30
2023-03-16T10:52:57.601Z,5.40
2023-03-16T10:53:55.629Z,5.60
2023-03-16T10:54:55.642Z,5.50
2023-03-16T10:55:55.591Z,5.50
2023-03-16T10:56:55.583Z,5.30
2023-03-16T10:57:55.585Z,5.40
2023-03-16T10:58:55.587Z,5.40
2023-03-16T10:59:55.586Z,5.30
2023-03-16T11:00:55.551Z,5.20
2023-03-16T11:01:55.526Z,5.10
2023-03-16T11:02:55.539Z,5.20
2023-03-16T11:03:55.507Z,4.90
2023-03-16T11:04:55.570Z,5.00
2023-03-16T11:05:55.496Z,5.00
2023-03-16T11:06:55.485Z,5.10
2023-03-16T11:07:55.470Z,5.00
2023-03-16T11:08:55.464Z,5.20
2023-03-16T11:09:55.472Z,5.30
2023-03-16T11:10:56.324Z,5.10
2023-03-16T11:11:55.431Z,5.10
2023-03-16T11:12:57.599Z,5.20
2023-03-16T11:13:55.432Z,5.10
2023-03-16T11:14:55.422Z,5.00
2023-03-16T11:15:55.404Z,5.20
2023-03-16T11:16:55.451Z,5.50
2023-03-16T11:17:55.378Z,5.60
2023-03-16T11:18:55.343Z,5.90
2023-03-16T11:19:55.354Z,6.00
2023-03-16T11:20:55.314Z,5.80
2023-03-16T11:21:55.347Z,5.20
2023-03-16T11:22:55.273Z,5.40
2023-03-16T11:23:55.300Z,5.50
2023-03-16T11:24:55.309Z,5.20
2023-03-16T11:25:55.266Z,5.40
2023-03-16T11:26:55.266Z,5.80
2023-03-16T11:27:55.260Z,5.40
2023-03-16T11:28:55.214Z,5.40
2023-03-16T11:29:55.236Z,5.60
2023-03-16T11:30:55.343Z,5.10
2023-03-16T11:31:55.234Z,4.90
2023-03-16T11:32:55.207Z,4.80
2023-03-16T11:33:55.181Z,4.90
2023-03-16T11:34:55.166Z,4.80
2023-03-16T11:35:59.292Z,5.50
2023-03-16T11:36:55.151Z,4.90
2023-03-16T11:37:55.138Z,5.00
2023-03-16T11:38:55.820Z,5.10
2023-03-16T11:39:55.110Z,5.40
2023-03-16T11:40:55.126Z,5.40
2023-03-16T11:41:55.094Z,5.50
2023-03-16T11:42:55.097Z,5.80
2023-03-16T11:43:55.114Z,5.40
2023-03-16T11:44:55.048Z,5.70
2023-03-16T11:45:55.109Z,5.20
2023-03-16T11:46:55.025Z,5.70
2023-03-16T11:47:55.044Z,5.70
2023-03-16T11:48:55.008Z,5.80
2023-03-16T11:49:55.002Z,5.60
2023-03-16T11:50:55.008Z,6.10
2023-03-16T11:51:54.955Z,5.80
2023-03-16T11:52:54.972Z,5.80
2023-03-16T11:53:54.962Z,5.50
2023-03-16T11:54:54.940Z,5.40
2023-03-16T11:55:55.002Z,5.40
2023-03-16T11:56:54.926Z,5.70
2023-03-16T11:57:54.920Z,5.40
2023-03-16T11:58:54.878Z,5.50
2023-03-16T12:00:01.251Z,5.40
2023-03-16T12:00:55.901Z,5.10
2023-03-16T12:02:00.807Z,5.10
2023-03-16T12:02:55.931Z,5.20
2023-03-16T12:03:54.945Z,5.30
2023-03-16T12:04:54.841Z,5.30
2023-03-16T12:05:54.844Z,4.80
2023-03-16T12:06:54.815Z,5.00
2023-03-16T12:07:54.801Z,4.90
2023-03-16T12:08:54.796Z,4.70
2023-03-16T12:09:54.757Z,4.90
2023-03-16T12:10:54.774Z,5.00
2023-03-16T12:11:54.742Z,4.90
2023-03-16T12:12:54.719Z,4.90
2023-03-16T12:13:54.717Z,5.00
2023-03-16T12:14:54.705Z,4.90
2023-03-16T12:15:54.822Z,5.10
2023-03-16T12:16:54.727Z,4.90
2023-03-16T12:17:54.779Z,4.90
2023-03-16T12:18:54.649Z,4.80
2023-03-16T12:19:54.633Z,5.10
2023-03-16T12:20:54.644Z,4.90
2023-03-16T12:21:54.609Z,5.10
2023-03-16T12:22:54.678Z,4.90
2023-03-16T12:23:54.602Z,5.00
2023-03-16T12:24:54.596Z,4.80
2023-03-16T12:25:54.579Z,5.10
2023-03-16T12:26:54.548Z,5.40
2023-03-16T12:27:54.567Z,5.30
2023-03-16T12:28:54.578Z,5.20
2023-03-16T12:29:54.552Z,5.30
2023-03-16T12:30:54.514Z,5.10
2023-03-16T12:31:54.511Z,5.10
2023-03-16T12:32:54.550Z,4.90
2023-03-16T12:33:54.541Z,4.90
2023-03-16T12:34:54.497Z,5.10
2023-03-16T12:35:54.527Z,5.20
2023-03-16T12:36:54.448Z,5.20
2023-03-16T12:37:54.451Z,5.20
2023-03-16T12:38:54.447Z,5.00
2023-03-16T12:39:54.474Z,5.00
2023-03-16T12:40:54.413Z,4.90
2023-03-16T12:41:54.400Z,4.90
2023-03-16T12:42:54.390Z,4.60
2023-03-16T12:43:54.384Z,4.80
2023-03-16T12:44:54.364Z,4.90
2023-03-16T12:45:54.408Z,4.80
2023-03-16T12:46:54.339Z,5.10